LEGR/GRX METAR and TAF weather

Enter ICAO airport designator
Station Type Date Time Source
LEGR METAR 2019/04/18 22:00 UTC NOAA

LEGR 182200Z AUTO VRB01KT 9999 NCD 08/07 Q1015


Station Type Date Time Source
LEGR Decoded METAR 2019/04/18 22:00 UTC NOAA

Granada / Aeropuerto, Spain (LEGR) 37-11N 003-47W 570M
Apr 18, 2019 - 06:00 PM EDT / 2019.04.18 2200 UTC
Wind: Variable at 1 MPH (1 KT):0
Visibility: greater than 7 mile(s):0
Temperature: 46 F (8 C)
Dew Point: 44 F (7 C)
Relative Humidity: 93%
Pressure (altimeter): 29.97 in. Hg (1015 hPa)
ob: LEGR 182200Z AUTO VRB01KT 9999 NCD 08/07 Q1015
cycle: 22

Station Type Date Time Source
LEGR TAF 2019/04/18 21:27 UTC NOAA

TAF LEGR 182000Z 1821/1921 VRB03KT 9999 SCT025 SCT040 TX18/1914Z TN07/1906Z PROB40
TEMPO 1913/1918 4000 SHRA SCT025TCU BKN035 PROB30
TEMPO 1914/1917 27015G25KT 3000 TSRA SCT020CB BKN030

Example: see airport list